createdAt,value
2022-11-08T00:00:47.514Z,99.90
2022-11-08T00:03:15.631Z,99.90
2022-11-08T00:06:01.115Z,99.90
2022-11-08T00:08:52.518Z,99.90
2022-11-08T00:11:39.469Z,99.90
2022-11-08T00:14:07.460Z,99.90
2022-11-08T00:16:35.585Z,99.90
2022-11-08T00:19:03.677Z,99.90
2022-11-08T00:21:38.520Z,99.90
2022-11-08T00:24:07.170Z,99.90
2022-11-08T00:26:36.612Z,99.90
2022-11-08T00:29:04.672Z,99.90
2022-11-08T00:31:33.289Z,99.90
2022-11-08T00:34:01.264Z,99.90
2022-11-08T00:36:29.298Z,99.90
2022-11-08T00:38:57.397Z,99.90
2022-11-08T00:41:25.468Z,99.90
2022-11-08T00:43:54.828Z,99.90
2022-11-08T00:46:23.596Z,99.90
2022-11-08T00:48:51.611Z,99.90
2022-11-08T00:51:19.606Z,99.90
2022-11-08T00:53:47.608Z,99.90
2022-11-08T00:56:15.663Z,99.90
2022-11-08T00:58:43.972Z,99.90
2022-11-08T01:01:16.571Z,99.90
2022-11-08T01:03:51.567Z,99.90
2022-11-08T01:06:21.461Z,99.90
2022-11-08T01:08:50.699Z,99.90
2022-11-08T01:11:21.419Z,99.90
2022-11-08T01:13:51.269Z,99.90
2022-11-08T01:16:23.016Z,99.90
2022-11-08T01:18:58.551Z,99.90
2022-11-08T01:21:28.131Z,99.90
2022-11-08T01:23:56.789Z,99.90
2022-11-08T01:26:26.229Z,99.90
2022-11-08T01:28:55.129Z,99.90
2022-11-08T01:31:26.805Z,99.90
2022-11-08T01:33:55.657Z,99.90
2022-11-08T01:36:25.853Z,99.90
2022-11-08T01:38:54.817Z,99.90
2022-11-08T01:41:25.189Z,99.90
2022-11-08T01:43:53.834Z,99.90
2022-11-08T01:46:42.369Z,99.90
2022-11-08T01:49:29.853Z,99.90
2022-11-08T01:52:20.360Z,99.90
2022-11-08T01:55:03.927Z,99.90
2022-11-08T01:57:36.389Z,99.90
2022-11-08T02:00:08.318Z,99.90
2022-11-08T02:02:38.879Z,99.90
2022-11-08T02:05:31.581Z,99.90
2022-11-08T02:08:03.575Z,99.90
2022-11-08T02:10:36.007Z,99.90
2022-11-08T02:13:05.463Z,99.90
2022-11-08T02:15:33.932Z,99.90
2022-11-08T02:18:04.010Z,99.90
2022-11-08T02:20:33.567Z,99.90
2022-11-08T02:23:17.612Z,99.90
2022-11-08T02:25:48.055Z,99.90
2022-11-08T02:28:16.634Z,99.90
2022-11-08T02:30:44.885Z,99.90
2022-11-08T02:33:17.371Z,99.90
2022-11-08T02:35:47.575Z,99.90
2022-11-08T02:38:15.962Z,99.90
2022-11-08T02:40:49.880Z,99.90
2022-11-08T02:43:18.360Z,99.90
2022-11-08T02:45:46.612Z,99.90
2022-11-08T02:48:15.637Z,99.90
2022-11-08T02:50:44.461Z,99.90
2022-11-08T02:53:12.457Z,99.90
2022-11-08T02:55:40.558Z,99.90
2022-11-08T02:58:10.153Z,99.90
2022-11-08T03:00:38.243Z,99.90
2022-11-08T03:03:06.869Z,99.90
2022-11-08T03:05:37.451Z,99.90
2022-11-08T03:08:05.983Z,99.90
2022-11-08T03:10:36.997Z,99.90
2022-11-08T03:13:07.475Z,99.90
2022-11-08T03:15:38.386Z,99.90
2022-11-08T03:18:06.512Z,99.90
2022-11-08T03:20:34.531Z,99.90
2022-11-08T03:23:10.606Z,99.90
2022-11-08T03:25:38.718Z,99.90
2022-11-08T03:28:08.821Z,99.90
2022-11-08T03:30:38.392Z,99.90
2022-11-08T03:33:06.772Z,99.90
2022-11-08T03:35:34.763Z,99.90
2022-11-08T03:38:02.772Z,99.90
2022-11-08T03:40:30.833Z,99.90
2022-11-08T03:42:58.831Z,99.90
2022-11-08T03:45:27.064Z,99.90
2022-11-08T03:47:56.495Z,99.90
2022-11-08T03:50:24.496Z,99.90
2022-11-08T03:52:54.507Z,99.90
2022-11-08T03:55:24.284Z,99.90
2022-11-08T03:57:53.276Z,99.90
2022-11-08T04:00:23.352Z,99.90
2022-11-08T04:02:52.618Z,99.90
2022-11-08T04:05:22.168Z,99.90
2022-11-08T04:07:50.267Z,99.90
2022-11-08T04:10:18.947Z,99.90
2022-11-08T04:13:04.335Z,99.90
2022-11-08T04:15:32.858Z,99.90
2022-11-08T04:18:24.638Z,99.90
2022-11-08T04:21:11.284Z,99.90
2022-11-08T04:23:41.948Z,99.90
2022-11-08T04:26:11.664Z,99.90
2022-11-08T04:28:41.515Z,99.90
2022-11-08T04:31:11.897Z,99.90
2022-11-08T04:33:46.634Z,99.90
2022-11-08T04:36:23.648Z,99.90
2022-11-08T04:38:52.922Z,99.90
2022-11-08T04:41:23.152Z,99.90
2022-11-08T04:43:53.245Z,99.90
2022-11-08T04:46:23.178Z,99.90
2022-11-08T04:48:52.974Z,99.90
2022-11-08T04:51:26.689Z,99.90
2022-11-08T04:53:56.460Z,99.90
2022-11-08T04:56:25.167Z,99.90
2022-11-08T04:58:55.353Z,99.90
2022-11-08T05:01:24.937Z,99.90
2022-11-08T05:04:01.650Z,99.90
2022-11-08T05:06:32.321Z,99.90
2022-11-08T05:09:01.358Z,99.90
2022-11-08T05:11:31.105Z,99.90
2022-11-08T05:14:00.728Z,99.90
2022-11-08T05:16:30.481Z,99.90
2022-11-08T05:18:58.700Z,99.90
2022-11-08T05:21:44.197Z,99.90
2022-11-08T05:24:16.020Z,99.90
2022-11-08T05:26:46.308Z,99.90
2022-11-08T05:29:16.030Z,99.90
2022-11-08T05:31:44.050Z,99.90
2022-11-08T05:34:12.023Z,99.90
2022-11-08T05:36:40.084Z,99.90
2022-11-08T05:39:14.660Z,99.90
2022-11-08T05:41:44.315Z,99.90
2022-11-08T05:44:12.380Z,99.90
2022-11-08T05:46:46.651Z,99.90
2022-11-08T05:49:16.400Z,99.90
2022-11-08T05:51:44.410Z,99.90
2022-11-08T05:54:13.096Z,99.90
2022-11-08T05:56:49.672Z,99.90
2022-11-08T05:59:17.686Z,99.90
2022-11-08T06:01:45.716Z,99.90
2022-11-08T06:04:13.915Z,99.90
2022-11-08T06:06:48.661Z,99.90
2022-11-08T06:09:16.701Z,99.90
2022-11-08T06:11:46.502Z,99.90
2022-11-08T06:14:14.739Z,99.90
2022-11-08T06:16:42.778Z,99.90
2022-11-08T06:19:11.038Z,99.90
2022-11-08T06:21:39.020Z,99.90
2022-11-08T06:24:09.948Z,99.90
2022-11-08T06:26:38.238Z,99.90
2022-11-08T06:29:07.767Z,99.90
2022-11-08T06:31:39.403Z,99.90
2022-11-08T06:34:11.567Z,99.90
2022-11-08T06:36:45.680Z,99.90
2022-11-08T06:39:14.071Z,99.90
2022-11-08T06:41:42.052Z,99.90
2022-11-08T06:44:11.391Z,99.90
2022-11-08T06:46:39.371Z,99.90
2022-11-08T06:49:07.358Z,99.90
2022-11-08T06:51:35.708Z,99.90
2022-11-08T06:54:08.813Z,99.90
2022-11-08T06:56:37.355Z,99.90
2022-11-08T06:59:05.610Z,99.90
2022-11-08T07:01:35.146Z,99.90
2022-11-08T07:04:03.321Z,99.90
2022-11-08T07:06:34.474Z,99.90
2022-11-08T07:09:02.443Z,99.90
2022-11-08T07:11:30.862Z,99.90
2022-11-08T07:13:59.271Z,99.90
2022-11-08T07:16:27.282Z,99.90
2022-11-08T07:18:56.705Z,99.90
2022-11-08T07:21:31.701Z,99.90
2022-11-08T07:23:59.717Z,99.90
2022-11-08T07:26:27.882Z,99.90
2022-11-08T07:28:55.838Z,99.90
2022-11-08T07:31:24.080Z,99.90
2022-11-08T07:33:58.710Z,99.90
2022-11-08T07:36:28.097Z,99.90
2022-11-08T07:38:56.083Z,99.90
2022-11-08T07:41:24.125Z,99.90
2022-11-08T07:43:52.319Z,99.90
2022-11-08T07:46:20.316Z,99.90
2022-11-08T07:48:48.276Z,99.90
2022-11-08T07:51:22.709Z,99.90
2022-11-08T07:53:52.155Z,99.90
2022-11-08T07:56:20.145Z,99.90
2022-11-08T07:58:48.386Z,99.90
2022-11-08T08:01:16.400Z,99.90
2022-11-08T08:03:44.388Z,99.90
2022-11-08T08:06:13.293Z,99.90
2022-11-08T08:08:41.925Z,99.90
2022-11-08T08:11:14.346Z,99.90
2022-11-08T08:13:42.668Z,99.90
2022-11-08T08:16:10.833Z,99.90
2022-11-08T08:18:38.806Z,99.90
2022-11-08T08:21:06.986Z,99.90
2022-11-08T08:23:34.976Z,99.90
2022-11-08T08:26:03.272Z,99.90
2022-11-08T08:28:32.621Z,99.90
2022-11-08T08:31:00.623Z,99.90
2022-11-08T08:33:31.502Z,99.90
2022-11-08T08:36:01.662Z,99.90
2022-11-08T08:38:30.210Z,99.90
2022-11-08T08:41:04.749Z,99.90
2022-11-08T08:43:34.809Z,99.90
2022-11-08T08:46:04.765Z,99.90
2022-11-08T08:48:33.286Z,99.90
2022-11-08T08:51:01.576Z,99.90
2022-11-08T08:53:29.567Z,99.90
2022-11-08T08:55:57.895Z,99.90
2022-11-08T08:58:32.928Z,99.90
2022-11-08T09:04:00.870Z,99.90
2022-11-08T09:06:28.888Z,99.90
2022-11-08T09:08:56.900Z,99.90
2022-11-08T09:11:24.881Z,99.90
2022-11-08T09:13:52.966Z,99.80
2022-11-08T09:16:22.376Z,99.60
2022-11-08T09:18:50.464Z,99.50
2022-11-08T09:21:18.613Z,98.70
2022-11-08T09:23:46.659Z,99.10
2022-11-08T09:26:14.687Z,98.50
2022-11-08T09:28:42.988Z,98.70
2022-11-08T09:31:13.458Z,98.40
2022-11-08T09:33:43.826Z,98.30
2022-11-08T09:36:14.606Z,98.20
2022-11-08T09:38:42.606Z,98.10
2022-11-08T09:41:44.479Z,97.70
2022-11-08T09:44:23.111Z,98.50
2022-11-08T09:46:53.915Z,97.60
2022-11-08T09:49:27.562Z,97.30
2022-11-08T09:51:55.829Z,97.40
2022-11-08T09:54:28.925Z,97.10
2022-11-08T09:56:56.976Z,96.80
2022-11-08T09:59:33.557Z,96.00
2022-11-08T10:02:01.617Z,95.70
2022-11-08T10:04:33.933Z,96.80
2022-11-08T10:07:21.843Z,97.50
2022-11-08T10:10:08.855Z,98.10
2022-11-08T10:12:50.844Z,99.00
2022-11-08T10:15:28.186Z,99.20
2022-11-08T10:18:32.826Z,99.40
2022-11-08T10:21:07.472Z,99.80
2022-11-08T10:23:43.767Z,99.90
2022-11-08T10:26:16.651Z,99.90
2022-11-08T10:28:50.296Z,99.90
2022-11-08T10:31:20.544Z,99.90
2022-11-08T10:33:52.195Z,99.90
2022-11-08T10:36:35.813Z,99.90
2022-11-08T10:39:11.244Z,99.90
2022-11-08T10:41:44.601Z,99.90
2022-11-08T10:44:16.839Z,99.90
2022-11-08T10:46:46.758Z,99.90
2022-11-08T10:49:21.603Z,99.90
2022-11-08T10:52:00.819Z,99.90
2022-11-08T10:54:46.662Z,99.90
2022-11-08T10:57:16.688Z,99.90
2022-11-08T10:59:45.856Z,99.90
2022-11-08T11:02:26.349Z,99.90
2022-11-08T11:04:56.059Z,99.90
2022-11-08T11:07:34.048Z,99.90
2022-11-08T11:10:22.826Z,99.90
2022-11-08T11:12:52.151Z,99.90
2022-11-08T11:15:20.421Z,99.90
2022-11-08T11:17:54.819Z,99.90
2022-11-08T11:20:25.382Z,99.90
2022-11-08T11:22:56.077Z,99.90
2022-11-08T11:25:25.096Z,99.90
2022-11-08T11:27:56.431Z,99.90
2022-11-08T11:30:29.260Z,99.90
2022-11-08T11:33:01.391Z,99.90
2022-11-08T11:35:36.926Z,99.90
2022-11-08T11:38:20.934Z,99.90
2022-11-08T11:40:51.866Z,99.90
2022-11-08T11:43:31.379Z,99.90
2022-11-08T11:46:09.872Z,99.90
2022-11-08T11:48:44.536Z,99.90
2022-11-08T11:51:15.717Z,99.90
2022-11-08T11:53:48.811Z,99.90
2022-11-08T11:56:42.059Z,99.90
2022-11-08T11:59:39.385Z,99.90
2022-11-08T12:02:51.410Z,99.90
2022-11-08T12:05:35.197Z,99.90
2022-11-08T12:08:17.445Z,99.90
2022-11-08T12:11:14.226Z,99.90
2022-11-08T12:14:04.352Z,99.90
2022-11-08T12:16:40.405Z,99.90
2022-11-08T12:19:28.606Z,99.90
2022-11-08T12:22:03.761Z,99.90
2022-11-08T12:24:43.572Z,99.90
2022-11-08T12:27:23.028Z,99.90
2022-11-08T12:30:00.201Z,99.90
2022-11-08T12:32:51.878Z,99.90
2022-11-08T12:35:33.852Z,99.90
2022-11-08T12:38:17.015Z,99.90
2022-11-08T12:40:54.945Z,99.90
2022-11-08T12:43:35.035Z,99.90
2022-11-08T12:46:13.003Z,99.90
2022-11-08T12:49:10.281Z,99.90
2022-11-08T12:51:50.024Z,99.90
2022-11-08T12:54:23.940Z,99.90
2022-11-08T12:56:55.633Z,99.90
2022-11-08T12:59:29.332Z,99.90
2022-11-08T13:01:58.550Z,99.90
2022-11-08T13:04:47.987Z,99.90
2022-11-08T13:07:25.856Z,99.90
2022-11-08T13:10:00.571Z,99.90
2022-11-08T13:12:55.037Z,99.90
2022-11-08T13:15:26.745Z,99.90
2022-11-08T13:18:24.629Z,99.90
2022-11-08T13:20:52.969Z,99.90
2022-11-08T13:23:29.048Z,99.90
2022-11-08T13:26:13.231Z,99.90
2022-11-08T13:28:43.767Z,99.90
2022-11-08T13:31:28.592Z,99.90
2022-11-08T13:34:09.558Z,99.90
2022-11-08T13:36:49.544Z,99.90
2022-11-08T13:39:33.475Z,99.90
2022-11-08T13:42:04.239Z,99.90
2022-11-08T13:44:58.874Z,99.90
2022-11-08T13:47:55.158Z,99.90
2022-11-08T13:50:52.684Z,99.90
2022-11-08T13:53:44.086Z,99.90
2022-11-08T13:56:43.999Z,99.90
2022-11-08T13:59:54.557Z,99.90
2022-11-08T14:02:36.187Z,99.90
2022-11-08T14:05:32.799Z,99.90
2022-11-08T14:08:19.701Z,99.90
2022-11-08T14:11:17.997Z,99.90
2022-11-08T14:14:24.397Z,99.90
2022-11-08T14:17:10.839Z,99.90
2022-11-08T14:19:40.559Z,99.90
2022-11-08T14:22:20.660Z,99.90
2022-11-08T14:24:49.652Z,99.90
2022-11-08T14:27:35.803Z,99.90
2022-11-08T14:30:05.234Z,99.90
2022-11-08T14:32:33.251Z,99.90
2022-11-08T14:35:20.721Z,99.90
2022-11-08T14:37:50.203Z,99.90
2022-11-08T14:40:20.802Z,99.90
2022-11-08T14:42:49.415Z,99.90
2022-11-08T14:45:23.109Z,99.90
2022-11-08T14:47:55.104Z,99.90
2022-11-08T14:50:24.911Z,99.90
2022-11-08T14:52:54.288Z,99.90
2022-11-08T14:55:25.459Z,99.90
2022-11-08T14:57:55.704Z,99.90
2022-11-08T15:00:26.878Z,99.90
2022-11-08T15:02:57.684Z,99.90
2022-11-08T15:05:34.856Z,99.90
2022-11-08T15:08:07.844Z,99.90
2022-11-08T15:10:36.050Z,99.90
2022-11-08T15:13:04.152Z,99.90
2022-11-08T15:15:34.409Z,99.90
2022-11-08T15:18:17.200Z,99.90
2022-11-08T15:20:58.188Z,99.90
2022-11-08T15:23:35.592Z,99.90
2022-11-08T15:26:03.633Z,99.90
2022-11-08T15:28:35.445Z,99.90
2022-11-08T15:31:05.559Z,99.90
2022-11-08T15:33:36.973Z,99.90
2022-11-08T15:36:13.409Z,99.90
2022-11-08T15:38:44.553Z,99.90
2022-11-08T15:41:32.904Z,99.90
2022-11-08T15:44:22.032Z,99.90
2022-11-08T15:46:50.823Z,99.90
2022-11-08T15:49:21.232Z,99.90
2022-11-08T15:51:50.293Z,99.90
2022-11-08T15:54:21.432Z,99.90
2022-11-08T15:56:50.853Z,99.90
2022-11-08T15:59:22.031Z,99.90
2022-11-08T16:01:54.685Z,99.90
2022-11-08T16:04:22.776Z,99.90
2022-11-08T16:06:50.949Z,99.90
2022-11-08T16:09:20.356Z,99.90
2022-11-08T16:11:49.188Z,99.90
2022-11-08T16:14:20.569Z,99.90
2022-11-08T16:16:48.755Z,99.90
2022-11-08T16:19:21.462Z,99.90
2022-11-08T16:21:50.010Z,99.90
2022-11-08T16:24:18.832Z,99.90
2022-11-08T16:26:49.320Z,99.90
2022-11-08T16:29:21.949Z,99.90
2022-11-08T16:31:50.657Z,99.90
2022-11-08T16:34:19.376Z,99.90
2022-11-08T16:36:49.098Z,99.90
2022-11-08T16:39:18.743Z,99.90
2022-11-08T16:41:48.182Z,99.90
2022-11-08T16:44:16.263Z,99.90
2022-11-08T16:46:44.255Z,99.90
2022-11-08T16:49:21.053Z,99.90
2022-11-08T16:51:49.376Z,99.90
2022-11-08T16:54:20.542Z,99.90
2022-11-08T16:56:51.557Z,99.90
2022-11-08T16:59:19.970Z,99.90
2022-11-08T17:01:49.868Z,99.90
2022-11-08T17:04:17.924Z,99.90
2022-11-08T17:06:45.979Z,99.90
2022-11-08T17:09:14.553Z,99.90
2022-11-08T17:11:42.573Z,99.90
2022-11-08T17:14:15.031Z,99.90
2022-11-08T17:16:43.084Z,99.90
2022-11-08T17:19:11.736Z,99.90
2022-11-08T17:21:46.756Z,99.90
2022-11-08T17:24:20.036Z,99.90
2022-11-08T17:26:49.657Z,99.90
2022-11-08T17:29:19.485Z,99.90
2022-11-08T17:31:48.982Z,99.90
2022-11-08T17:34:16.995Z,99.90
2022-11-08T17:36:45.001Z,99.90
2022-11-08T17:39:14.340Z,99.90
2022-11-08T17:41:42.888Z,99.90
2022-11-08T17:44:10.931Z,99.90
2022-11-08T17:46:40.319Z,99.90
2022-11-08T17:49:09.496Z,99.90
2022-11-08T17:51:37.961Z,99.90
2022-11-08T17:54:06.025Z,99.90
2022-11-08T17:56:36.368Z,99.90
2022-11-08T17:59:04.939Z,99.90
2022-11-08T18:01:33.181Z,99.90
2022-11-08T18:04:03.492Z,99.90
2022-11-08T18:06:31.932Z,99.90
2022-11-08T18:09:00.055Z,99.90
2022-11-08T18:11:28.175Z,99.90
2022-11-08T18:13:56.197Z,99.90
2022-11-08T18:16:24.240Z,99.90
2022-11-08T18:18:52.760Z,99.90
2022-11-08T18:21:22.828Z,99.90
2022-11-08T18:23:54.238Z,99.90
2022-11-08T18:26:26.621Z,99.90
2022-11-08T18:28:56.395Z,99.90
2022-11-08T18:31:26.198Z,99.90
2022-11-08T18:33:54.769Z,99.90
2022-11-08T18:36:25.422Z,99.90
2022-11-08T18:38:54.416Z,99.90
2022-11-08T18:41:25.167Z,99.90
2022-11-08T18:43:55.040Z,99.90
2022-11-08T18:46:25.050Z,99.90
2022-11-08T18:48:53.402Z,99.90
2022-11-08T18:51:24.036Z,99.90
2022-11-08T18:53:55.348Z,99.90
2022-11-08T18:56:23.585Z,99.90
2022-11-08T18:58:51.970Z,99.90
2022-11-08T19:01:20.242Z,99.90
2022-11-08T19:03:51.124Z,99.90
2022-11-08T19:06:19.567Z,99.90
2022-11-08T19:08:48.965Z,99.90
2022-11-08T19:11:20.532Z,99.90
2022-11-08T19:13:51.157Z,99.90
2022-11-08T19:16:21.103Z,99.90
2022-11-08T19:18:50.067Z,99.90
2022-11-08T19:21:20.082Z,99.90
2022-11-08T19:23:50.104Z,99.90
2022-11-08T19:26:19.535Z,99.90
2022-11-08T19:28:49.116Z,99.90
2022-11-08T19:31:19.849Z,99.90
2022-11-08T19:33:48.992Z,99.90
2022-11-08T19:36:18.982Z,99.90
2022-11-08T19:38:47.195Z,99.90
2022-11-08T19:41:18.462Z,99.90
2022-11-08T19:43:47.744Z,99.90
2022-11-08T19:46:21.290Z,99.90
2022-11-08T19:48:50.928Z,99.90
2022-11-08T19:51:21.441Z,99.90
2022-11-08T19:53:49.809Z,99.90
2022-11-08T19:56:29.169Z,99.90
2022-11-08T19:59:13.146Z,99.90
2022-11-08T20:01:41.255Z,99.90
2022-11-08T20:04:12.743Z,99.90
2022-11-08T20:06:41.787Z,99.90
2022-11-08T20:09:10.460Z,99.90
2022-11-08T20:11:42.401Z,99.90
2022-11-08T20:14:13.885Z,99.90
2022-11-08T20:16:47.852Z,99.90
2022-11-08T20:19:19.399Z,99.90
2022-11-08T20:21:47.490Z,99.90
2022-11-08T20:24:16.361Z,99.90
2022-11-08T20:26:45.836Z,99.90
2022-11-08T20:29:14.731Z,99.90
2022-11-08T20:31:42.921Z,99.90
2022-11-08T20:34:12.923Z,99.90
2022-11-08T20:36:41.817Z,99.90
2022-11-08T20:39:10.754Z,99.90
2022-11-08T20:41:40.970Z,99.90
2022-11-08T20:44:18.126Z,99.90
2022-11-08T20:46:46.145Z,99.90
2022-11-08T20:49:16.843Z,99.90
2022-11-08T20:51:45.307Z,99.90
2022-11-08T20:54:16.619Z,99.90
2022-11-08T20:56:44.666Z,99.90
2022-11-08T20:59:14.852Z,99.90
2022-11-08T21:01:42.981Z,99.90
2022-11-08T21:04:11.047Z,99.90
2022-11-08T21:06:39.323Z,99.90
2022-11-08T21:09:32.508Z,99.90
2022-11-08T21:11:56.156Z,99.90
2022-11-08T21:14:26.203Z,99.90
2022-11-08T21:19:44.646Z,99.90
2022-11-08T21:22:18.259Z,99.90
2022-11-08T21:24:55.126Z,99.90
2022-11-08T21:27:28.508Z,99.90
2022-11-08T21:29:59.004Z,99.90
2022-11-08T21:32:26.971Z,99.90
2022-11-08T21:34:54.904Z,99.90
2022-11-08T21:37:23.068Z,99.90
2022-11-08T21:39:51.032Z,99.90
2022-11-08T21:42:19.009Z,99.90
2022-11-08T21:44:47.006Z,99.90
2022-11-08T21:47:20.452Z,99.90
2022-11-08T21:49:53.073Z,99.90
2022-11-08T21:52:27.158Z,99.90
2022-11-08T21:54:55.448Z,99.90
2022-11-08T21:57:23.713Z,99.90
2022-11-08T21:59:51.656Z,99.90
2022-11-08T22:02:20.970Z,99.90
2022-11-08T22:04:48.958Z,99.90
2022-11-08T22:07:16.991Z,99.90
2022-11-08T22:09:45.443Z,99.90
2022-11-08T22:12:13.949Z,99.90
2022-11-08T22:14:41.916Z,99.90
2022-11-08T22:17:09.873Z,99.90
2022-11-08T22:19:40.254Z,99.90
2022-11-08T22:22:08.231Z,99.90
2022-11-08T22:24:36.245Z,99.90
2022-11-08T22:27:04.449Z,99.90
2022-11-08T22:29:39.148Z,99.90
2022-11-08T22:32:07.473Z,99.90
2022-11-08T22:34:35.476Z,99.90
2022-11-08T22:37:04.790Z,99.90
2022-11-08T22:39:32.818Z,99.90
2022-11-08T22:42:01.233Z,99.90
2022-11-08T22:44:29.285Z,99.90
2022-11-08T22:46:57.229Z,99.90
2022-11-08T22:49:25.211Z,99.90
2022-11-08T22:51:53.179Z,99.90
2022-11-08T22:54:22.508Z,99.90
2022-11-08T22:56:50.931Z,99.90
2022-11-08T22:59:18.909Z,99.90
2022-11-08T23:01:46.939Z,99.90
2022-11-08T23:04:17.971Z,99.90
2022-11-08T23:06:46.044Z,99.90
2022-11-08T23:09:14.166Z,99.90
2022-11-08T23:12:01.751Z,99.90
2022-11-08T23:14:51.294Z,99.90
2022-11-08T23:17:19.259Z,99.90
2022-11-08T23:20:04.777Z,99.90
2022-11-08T23:22:55.589Z,99.90
2022-11-08T23:25:23.563Z,99.90
2022-11-08T23:28:10.201Z,99.90
2022-11-08T23:30:55.735Z,99.90
2022-11-08T23:33:23.708Z,99.90
2022-11-08T23:36:15.500Z,99.90
2022-11-08T23:38:43.939Z,99.90
2022-11-08T23:41:30.131Z,99.90
2022-11-08T23:44:16.868Z,99.90
2022-11-08T23:46:45.081Z,99.90
2022-11-08T23:49:13.061Z,99.90
2022-11-08T23:51:41.035Z,99.90
2022-11-08T23:54:09.185Z,99.90
2022-11-08T23:56:37.260Z,99.90
2022-11-08T23:59:06.849Z,99.90
